Time;durP1;ratioP1;P1;durP2;ratioP2;P2;SDS_P1;SDS_P2;PMS_P1;PMS_P2;Temp;Humidity;BMP_temperature;BMP_pressure;BME280_temperature;BME280_humidity;BME280_pressure;Samples;Min_cycle;Max_cycle;Signal;HPM_P1;HPM_P2
2021/01/30 00:00:50;;;;;;;36.45;16.10;;;;;;;4.84;66.87;92305.81;5099201;27;20034;-73
2021/01/30 00:03:15;;;;;;;33.10;16.70;;;;;;;4.82;67.22;92310.63;5126106;27;20030;-73
2021/01/30 00:05:41;;;;;;;36.33;17.27;;;;;;;4.83;67.16;92312.19;5100646;28;20027;-72
2021/01/30 00:08:08;;;;;;;42.67;19.20;;;;;;;4.80;67.36;92307.53;5111034;28;20031;-73
2021/01/30 00:10:34;;;;;;;51.13;22.88;;;;;;;4.78;66.89;92304.44;5094497;28;20016;-73
2021/01/30 00:13:01;;;;;;;49.72;21.60;;;;;;;4.79;67.17;92306.75;5128062;27;20044;-73
2021/01/30 00:15:27;;;;;;;46.03;20.02;;;;;;;4.76;67.12;92302.13;5099480;28;20096;-73
2021/01/30 00:17:54;;;;;;;42.20;20.55;;;;;;;4.75;67.34;92299.78;5101223;27;20034;-73
2021/01/30 00:20:32;;;;;;;43.67;20.52;;;;;;;4.76;67.43;92296.06;5112032;27;20024;-73
2021/01/30 00:22:59;;;;;;;40.20;21.05;;;;;;;4.75;67.34;92294.50;5115411;27;20031;-73
2021/01/30 00:25:30;;;;;;;39.25;18.67;;;;;;;4.70;67.44;92292.81;5112547;27;20083;-72
2021/01/30 00:27:56;;;;;;;36.28;15.05;;;;;;;4.65;67.71;92286.94;5126006;27;20027;-72
2021/01/30 00:30:23;;;;;;;25.50;12.65;;;;;;;4.61;67.85;92284.91;5110820;27;20015;-73
2021/01/30 00:32:50;;;;;;;28.88;11.98;;;;;;;4.62;67.63;92278.56;5129927;27;20029;-73
2021/01/30 00:35:17;;;;;;;20.95;8.82;;;;;;;4.57;67.71;92268.16;5111864;27;20019;-73
2021/01/30 00:37:42;;;;;;;13.55;6.82;;;;;;;4.53;67.61;92266.47;5112506;27;20117;-72
2021/01/30 00:40:09;;;;;;;12.60;5.85;;;;;;;4.50;67.58;92257.31;5124774;27;20496;-72
2021/01/30 00:42:35;;;;;;;13.63;6.82;;;;;;;4.46;67.55;92251.13;5091925;28;20479;-71
2021/01/30 00:45:03;;;;;;;17.38;7.63;;;;;;;4.42;67.73;92244.91;5103636;28;20047;-71
2021/01/30 00:47:28;;;;;;;16.25;6.78;;;;;;;4.33;68.13;92238.88;5108610;28;20027;-72
2021/01/30 00:49:53;;;;;;;20.85;8.55;;;;;;;4.33;68.21;92236.22;5092281;28;20020;-72
2021/01/30 00:52:20;;;;;;;22.63;9.60;;;;;;;4.35;67.97;92226.91;5091871;28;20019;-72
2021/01/30 00:54:46;;;;;;;22.83;9.20;;;;;;;4.32;68.17;92229.44;5096030;28;20027;-72
2021/01/30 00:57:12;;;;;;;20.20;8.63;;;;;;;4.31;68.36;92222.59;5112240;27;20034;-72
2021/01/30 00:59:40;;;;;;;20.05;8.93;;;;;;;4.31;68.24;92217.31;5112067;28;20054;-72
2021/01/30 01:02:05;;;;;;;23.30;10.85;;;;;;;4.28;68.20;92216.09;5126062;27;20023;-72
2021/01/30 01:04:31;;;;;;;29.42;13.75;;;;;;;4.26;68.51;92207.72;5111139;27;20564;-72
2021/01/30 01:06:56;;;;;;;31.48;14.60;;;;;;;4.23;68.07;92200.41;5120783;27;20246;-73
2021/01/30 01:09:22;;;;;;;26.58;13.77;;;;;;;4.18;68.44;92190.81;5112243;28;20027;-72
2021/01/30 01:11:49;;;;;;;25.80;12.95;;;;;;;4.17;68.35;92193.75;5119054;27;20027;-72
2021/01/30 01:14:17;;;;;;;23.67;12.63;;;;;;;4.16;68.67;92184.31;5119083;27;20115;-72
2021/01/30 01:16:42;;;;;;;21.65;10.93;;;;;;;4.12;68.67;92172.84;5091525;28;20111;-72
2021/01/30 01:19:08;;;;;;;22.83;11.13;;;;;;;4.10;68.72;92165.22;5110202;28;20037;-72
2021/01/30 01:21:33;;;;;;;28.27;12.10;;;;;;;4.07;68.74;92175.63;5109815;28;20121;-72
2021/01/30 01:23:59;;;;;;;23.33;11.77;;;;;;;4.04;69.17;92169.13;5108631;28;20432;-72
2021/01/30 01:26:25;;;;;;;26.20;12.68;;;;;;;4.01;69.03;92172.41;5108441;28;20024;-72
2021/01/30 01:28:50;;;;;;;31.33;11.82;;;;;;;4.00;69.21;92163.69;5108249;28;20028;-72
2021/01/30 01:31:18;;;;;;;29.85;13.38;;;;;;;3.99;69.36;92156.13;5108793;28;20161;-72
2021/01/30 01:33:43;;;;;;;30.90;13.25;;;;;;;3.97;69.81;92158.28;5100010;28;20016;-72
2021/01/30 01:36:13;;;;;;;32.67;14.50;;;;;;;3.94;69.69;92145.72;5108451;28;20081;-72
2021/01/30 01:38:38;;;;;;;35.30;15.88;;;;;;;3.95;69.64;92147.28;5106592;28;20027;-73
2021/01/30 01:41:04;;;;;;;28.17;13.63;;;;;;;3.95;69.38;92132.25;5089372;28;20101;-72
2021/01/30 01:43:30;;;;;;;27.27;14.00;;;;;;;3.94;69.46;92127.28;5089512;28;20028;-73
2021/01/30 01:46:10;;;;;;;34.45;14.20;;;;;;;3.96;69.41;92128.50;5111178;28;20023;-72
2021/01/30 01:48:41;;;;;;;30.30;13.20;;;;;;;3.97;69.76;92129.31;5106094;28;20102;-73
2021/01/30 01:51:12;;;;;;;23.48;10.52;;;;;;;3.96;69.83;92114.56;5092250;28;20032;-74
2021/01/30 01:53:41;;;;;;;25.67;11.90;;;;;;;3.94;69.90;92103.56;5092105;28;20028;-73
2021/01/30 01:56:13;;;;;;;22.98;10.65;;;;;;;3.89;70.20;92108.97;5091562;28;20416;-73
2021/01/30 01:58:42;;;;;;;25.90;12.18;;;;;;;3.87;70.20;92093.50;5093458;28;20032;-73
2021/01/30 02:01:08;;;;;;;21.83;11.48;;;;;;;3.89;69.84;92085.25;5091721;28;20518;-73
2021/01/30 02:03:34;;;;;;;26.90;11.68;;;;;;;3.88;70.21;92089.00;5093284;28;20024;-73
2021/01/30 02:06:02;;;;;;;25.30;12.52;;;;;;;3.88;70.25;92081.09;5091354;28;20031;-74
2021/01/30 02:08:28;;;;;;;21.83;10.45;;;;;;;3.87;70.11;92077.69;5107202;28;20058;-74
2021/01/30 02:10:54;;;;;;;23.50;10.95;;;;;;;3.81;70.40;92074.44;5113376;28;20107;-74
2021/01/30 02:13:28;;;;;;;22.73;11.02;;;;;;;3.81;70.48;92069.16;5111868;28;20131;-73
2021/01/30 02:16:11;;;;;;;25.77;10.98;;;;;;;3.75;70.83;92073.06;5094681;28;20407;-73
2021/01/30 02:18:48;;;;;;;21.63;10.57;;;;;;;3.78;70.59;92072.41;5099169;28;20479;-73
2021/01/30 02:21:40;;;;;;;22.38;10.18;;;;;;;3.75;70.84;92067.03;5104778;28;20038;-73
2021/01/30 02:24:52;;;;;;;21.75;10.82;;;;;;;3.65;71.15;92062.84;5112839;28;20444;-73
2021/01/30 02:27:21;;;;;;;;;;;;;;;3.62;71.13;92058.19;5111997;28;20031;-72
2021/01/30 02:30:05;;;;;;;21.58;10.60;;;;;;;3.52;71.51;92051.41;5111857;28;19922;-73
2021/01/30 02:32:48;;;;;;;18.70;10.63;;;;;;;3.52;71.54;92061.97;5098693;28;20384;-73
2021/01/30 02:35:20;;;;;;;22.75;10.43;;;;;;;3.47;71.83;92059.47;5090807;28;20471;-72
2021/01/30 02:37:53;;;;;;;21.77;11.40;;;;;;;3.44;71.98;92054.03;5107697;28;20039;-72
2021/01/30 02:40:23;;;;;;;22.52;11.05;;;;;;;3.46;72.10;92067.69;5110359;28;20031;-72
2021/01/30 02:42:58;;;;;;;22.63;11.70;;;;;;;3.54;71.99;92061.63;5091174;28;20035;-72
2021/01/30 02:45:27;;;;;;;22.92;12.20;;;;;;;3.54;71.97;92070.31;5092008;28;20064;-72
2021/01/30 02:48:03;;;;;;;19.75;11.15;;;;;;;3.57;71.73;92076.81;5090997;28;20036;-73
2021/01/30 02:50:34;;;;;;;21.98;11.60;;;;;;;3.51;71.88;92075.44;5091948;28;20177;-73
2021/01/30 02:53:04;;;;;;;23.48;12.82;;;;;;;3.48;72.42;92073.41;5096779;28;20027;-72
2021/01/30 02:55:32;;;;;;;24.10;12.27;;;;;;;3.42;72.38;92076.22;5110860;28;20033;-72
2021/01/30 02:57:59;;;;;;;24.60;13.85;;;;;;;3.30;72.79;92077.94;5109255;28;20043;-72
2021/01/30 03:00:26;;;;;;;23.63;13.20;;;;;;;3.07;74.10;92077.31;5100320;28;20165;-73
2021/01/30 03:02:53;;;;;;;32.15;14.80;;;;;;;2.90;74.71;92089.38;5097896;28;20602;-72
2021/01/30 03:05:20;;;;;;;27.30;14.40;;;;;;;2.85;74.63;92075.59;5112270;28;20031;-72
2021/01/30 03:08:01;;;;;;;29.63;14.38;;;;;;;2.73;75.27;92078.84;5112334;27;20032;-72
2021/01/30 03:10:40;;;;;;;29.95;16.10;;;;;;;2.72;75.38;92082.53;5110786;28;20091;-73
2021/01/30 03:13:20;;;;;;;32.70;16.63;;;;;;;2.61;75.53;92084.69;5110636;28;20046;-72
2021/01/30 03:15:46;;;;;;;40.95;18.90;;;;;;;2.52;75.93;92089.91;5089321;28;20036;-72
2021/01/30 03:18:14;;;;;;;40.75;20.83;;;;;;;2.47;76.42;92092.69;5106462;28;20039;-72
2021/01/30 03:20:43;;;;;;;40.05;19.70;;;;;;;2.44;76.48;92090.66;5111826;28;20036;-74
2021/01/30 03:23:11;;;;;;;53.60;24.77;;;;;;;2.40;76.50;92081.84;5111987;28;20027;-72
2021/01/30 03:25:39;;;;;;;61.22;28.25;;;;;;;2.39;76.28;92096.84;5111751;28;20084;-71
2021/01/30 03:28:04;;;;;;;57.40;27.83;;;;;;;2.33;76.40;92097.31;5110456;28;20031;-72
2021/01/30 03:30:31;;;;;;;57.70;28.25;;;;;;;2.28;76.51;92090.34;5107985;28;20072;-72
2021/01/30 03:32:57;;;;;;;73.68;29.73;;;;;;;2.15;76.44;92091.97;5089949;28;20031;-72
2021/01/30 03:35:23;;;;;;;63.25;29.90;;;;;;;2.00;76.36;92097.63;5096687;28;20027;-72
2021/01/30 03:37:49;;;;;;;64.93;29.38;;;;;;;1.82;77.59;92088.13;5101609;28;20443;-72
2021/01/30 03:40:15;;;;;;;63.95;31.13;;;;;;;1.78;77.57;92098.44;5111669;28;20027;-72
2021/01/30 03:42:41;;;;;;;61.92;30.02;;;;;;;1.58;78.14;92110.22;5103888;28;20028;-72
2021/01/30 03:45:10;;;;;;;56.65;27.70;;;;;;;1.59;78.14;92104.69;5089779;28;20493;-72
2021/01/30 03:47:36;;;;;;;55.53;28.88;;;;;;;1.61;78.25;92104.41;5090514;28;20114;-71
2021/01/30 03:50:02;;;;;;;55.88;26.95;;;;;;;1.63;77.81;92107.50;5107006;28;20114;-72
2021/01/30 03:52:27;;;;;;;52.22;25.85;;;;;;;1.60;77.91;92108.09;5111305;28;20088;-73
2021/01/30 03:54:53;;;;;;;47.88;23.77;;;;;;;1.56;77.81;92104.50;5110078;28;20028;-72
2021/01/30 03:57:18;;;;;;;46.38;22.10;;;;;;;1.54;77.75;92104.03;5091647;28;20228;-73
2021/01/30 03:59:44;;;;;;;44.15;23.10;;;;;;;1.57;77.75;92098.97;5109875;28;20031;-73
2021/01/30 04:02:09;;;;;;;44.00;23.08;;;;;;;1.63;77.54;92107.50;5109631;28;20059;-73
2021/01/30 04:04:35;;;;;;;43.05;21.83;;;;;;;1.64;77.47;92098.53;5105437;28;20030;-73
2021/01/30 04:07:01;;;;;;;38.15;20.70;;;;;;;1.67;76.93;92103.19;5110862;28;20020;-73
2021/01/30 04:09:27;;;;;;;39.97;20.67;;;;;;;1.68;76.94;92109.22;5108760;28;20438;-72
2021/01/30 04:11:53;;;;;;;43.88;20.00;;;;;;;1.68;76.93;92107.34;5110806;28;20020;-73
2021/01/30 04:14:19;;;;;;;37.95;19.40;;;;;;;1.73;76.77;92103.81;5109723;28;20043;-72
2021/01/30 04:16:45;;;;;;;39.20;20.48;;;;;;;1.69;76.84;92102.88;5109286;28;20100;-72
2021/01/30 04:19:10;;;;;;;41.25;20.35;;;;;;;1.78;76.79;92098.44;5110952;28;20024;-76
2021/01/30 04:21:36;;;;;;;40.45;19.63;;;;;;;1.86;76.21;92102.22;5106319;28;20023;-73
2021/01/30 04:24:01;;;;;;;34.95;18.85;;;;;;;1.90;75.80;92096.03;5107605;28;20554;-72
2021/01/30 04:26:27;;;;;;;34.08;18.30;;;;;;;1.92;75.70;92087.88;5103485;28;20107;-74
2021/01/30 04:28:53;;;;;;;32.40;16.70;;;;;;;1.89;76.13;92085.81;5109815;28;20486;-73
2021/01/30 04:31:19;;;;;;;29.52;15.60;;;;;;;1.91;75.76;92091.56;5108316;28;20027;-73
2021/01/30 04:33:47;;;;;;;30.70;15.98;;;;;;;1.89;76.03;92091.09;5103929;28;20491;-75
2021/01/30 04:36:13;;;;;;;30.98;15.65;;;;;;;1.74;76.59;92100.13;5090426;28;20024;-76
2021/01/30 04:38:39;;;;;;;30.70;16.45;;;;;;;1.75;76.80;92088.53;5089035;28;20016;-76
2021/01/30 04:41:46;;;;;;;25.63;15.23;;;;;;;1.77;76.81;92095.06;5087826;28;20410;-76
2021/01/30 04:44:20;;;;;;;26.17;16.02;;;;;;;1.80;76.92;92094.44;5066853;28;20417;-76
2021/01/30 04:47:07;;;;;;;28.98;15.50;;;;;;;1.88;76.51;92098.19;5108410;28;20033;-76
2021/01/30 04:49:42;;;;;;;34.35;18.30;;;;;;;1.86;76.11;92099.59;5108568;28;20035;-76
2021/01/30 04:52:24;;;;;;;31.30;16.85;;;;;;;1.94;76.25;92097.00;5108451;28;20232;-76
2021/01/30 04:54:58;;;;;;;;;;;;;;;1.99;75.76;92109.22;5109877;28;20149;-76
2021/01/30 04:57:23;;;;;;;35.80;16.20;;;;;;;1.99;75.68;92106.59;5108810;28;19920;-76
2021/01/30 05:00:07;;;;;;;38.55;19.02;;;;;;;1.97;75.42;92114.00;5110652;28;20026;-76
2021/01/30 05:02:51;;;;;;;44.58;18.05;;;;;;;1.96;75.60;92109.84;5109107;28;20400;-76
2021/01/30 05:05:20;;;;;;;31.95;17.20;;;;;;;1.95;75.41;92106.41;5106896;28;20135;-76
2021/01/30 05:07:57;;;;;;;48.80;19.20;;;;;;;1.97;75.37;92114.00;5089844;28;20035;-76
2021/01/30 05:10:43;;;;;;;53.78;17.38;;;;;;;1.95;75.29;92121.41;5097914;28;20110;-76
2021/01/30 05:13:27;;;;;;;35.30;16.13;;;;;;;1.89;75.52;92130.50;5116642;27;20036;-76
2021/01/30 05:16:01;;;;;;;36.20;17.05;;;;;;;1.79;75.94;92134.13;5102734;28;20027;-75
2021/01/30 05:18:32;;;;;;;39.63;19.20;;;;;;;1.59;76.84;92143.31;5110200;28;20031;-75
2021/01/30 05:21:04;;;;;;;34.60;18.55;;;;;;;1.48;77.24;92145.38;5115155;27;20040;-75
2021/01/30 05:23:33;;;;;;;37.72;21.27;;;;;;;1.47;77.41;92149.09;5098534;27;20036;-75
2021/01/30 05:26:37;;;;;;;38.72;20.15;;;;;;;1.32;78.05;92147.59;5116907;27;20028;-76
2021/01/30 05:29:12;;;;;;;37.10;19.92;;;;;;;1.31;78.41;92148.66;5096411;27;20042;-76
2021/01/30 05:32:02;;;;;;;40.10;21.25;;;;;;;1.23;78.65;92154.63;5108299;27;20030;-76
2021/01/30 05:34:34;;;;;;;35.25;19.00;;;;;;;1.18;78.92;92147.63;5098360;27;20028;-76
2021/01/30 05:37:25;;;;;;;42.97;20.23;;;;;;;1.20;78.97;92153.38;5122304;27;20033;-76
2021/01/30 05:40:13;;;;;;;41.97;20.20;;;;;;;1.19;78.84;92161.53;5092973;27;20035;-76
2021/01/30 05:43:11;;;;;;;44.40;22.33;;;;;;;1.10;79.43;92164.09;5122809;27;20080;-76
2021/01/30 05:45:44;;;;;;;48.72;27.08;;;;;;;1.13;79.41;92162.72;5118932;27;20054;-77
2021/01/30 05:48:20;;;;;;;52.92;24.63;;;;;;;1.17;79.24;92164.44;5118641;27;20030;-76
2021/01/30 05:51:13;;;;;;;53.05;26.45;;;;;;;1.20;79.01;92165.69;5130694;27;20023;-76
2021/01/30 05:53:39;;;;;;;55.25;25.52;;;;;;;1.18;79.05;92176.50;5097569;27;20501;-77
2021/01/30 05:56:05;;;;;;;56.97;25.95;;;;;;;1.15;78.93;92169.22;5116652;27;20462;-76
2021/01/30 05:58:35;;;;;;;50.75;22.52;;;;;;;1.14;79.09;92180.78;5116800;27;20030;-76
2021/01/30 06:01:16;;;;;;;49.72;24.08;;;;;;;1.14;79.12;92182.63;5115440;27;20019;-76
2021/01/30 06:04:05;;;;;;;43.53;22.77;;;;;;;1.14;79.19;92180.00;5098067;27;20402;-76
2021/01/30 06:06:50;;;;;;;44.00;21.85;;;;;;;1.12;79.12;92203.94;5102441;27;20151;-76
2021/01/30 06:09:31;;;;;;;42.78;20.55;;;;;;;1.06;79.24;92204.31;5131186;27;20495;-76
2021/01/30 06:11:57;;;;;;;34.92;18.45;;;;;;;1.06;79.60;92215.59;5098198;28;20019;-76
2021/01/30 06:14:38;;;;;;;33.45;18.10;;;;;;;1.07;79.77;92217.13;5097898;27;20050;-76
2021/01/30 06:17:15;;;;;;;36.58;17.52;;;;;;;1.10;79.41;92221.81;5098064;28;20027;-76
2021/01/30 06:19:40;;;;;;;40.00;18.40;;;;;;;1.07;79.82;92226.88;5102727;27;20050;-76
2021/01/30 06:22:27;;;;;;;35.55;19.77;;;;;;;1.11;80.05;92225.19;5101916;28;20108;-76
2021/01/30 06:24:52;;;;;;;40.42;18.02;;;;;;;1.08;79.67;92239.69;5098118;27;20170;-76
2021/01/30 06:27:26;;;;;;;35.50;18.70;;;;;;;0.99;80.02;92247.47;5116328;27;20475;-76
2021/01/30 06:29:59;;;;;;;38.10;17.23;;;;;;;1.02;79.96;92247.94;5097959;27;20191;-76
2021/01/30 06:32:32;;;;;;;33.45;16.65;;;;;;;0.97;80.11;92251.44;5094569;28;20118;-76
2021/01/30 06:35:26;;;;;;;33.53;16.98;;;;;;;0.94;80.18;92258.06;5106719;27;20173;-76
2021/01/30 06:38:03;;;;;;;23.38;12.05;;;;;;;0.89;80.78;92257.38;5123688;27;20047;-76
2021/01/30 06:40:35;;;;;;;19.83;10.45;;;;;;;0.82;80.92;92263.03;5128617;27;20025;-76
2021/01/30 06:43:20;;;;;;;24.60;10.40;;;;;;;0.84;81.29;92258.25;5093375;28;20515;-76
2021/01/30 06:45:46;;;;;;;23.05;8.57;;;;;;;0.86;81.24;92268.47;5094569;28;20031;-76
2021/01/30 06:48:28;;;;;;;21.90;7.20;;;;;;;0.89;81.38;92275.75;5125152;27;20039;-76
2021/01/30 06:50:53;;;;;;;14.38;6.05;;;;;;;0.86;81.39;92273.72;5093128;28;20024;-76
2021/01/30 06:53:22;;;;;;;19.00;7.43;;;;;;;0.92;81.28;92278.56;5107317;27;20037;-77
2021/01/30 06:55:48;;;;;;;41.15;9.88;;;;;;;1.00;81.06;92280.50;5104950;28;20059;-76
2021/01/30 06:58:38;;;;;;;16.52;6.13;;;;;;;1.07;80.39;92277.50;5094287;28;20152;-76
2021/01/30 07:01:10;;;;;;;5.90;3.10;;;;;;;1.05;80.64;92270.97;5124388;27;20023;-76
2021/01/30 07:04:04;;;;;;;5.90;2.53;;;;;;;1.13;80.10;92272.94;5114526;27;20023;-76
2021/01/30 07:06:48;;;;;;;6.03;2.15;;;;;;;1.11;80.05;92269.81;5108993;27;20394;-76
2021/01/30 07:09:19;;;;;;;6.07;2.20;;;;;;;1.23;79.80;92271.94;5107576;28;20028;-76
2021/01/30 07:12:14;;;;;;;27.05;5.70;;;;;;;1.42;79.49;92266.56;5113704;27;20034;-76
2021/01/30 07:15:00;;;;;;;16.52;5.43;;;;;;;1.53;79.35;92276.56;5132687;27;20079;-76
2021/01/30 07:17:56;;;;;;;17.77;2.67;;;;;;;1.51;78.98;92288.44;5114589;27;20031;-76
2021/01/30 07:20:34;;;;;;;12.65;3.95;;;;;;;1.50;79.06;92297.38;5132870;27;20394;-76
2021/01/30 07:23:07;;;;;;;13.77;4.13;;;;;;;1.53;79.54;92297.56;5114138;27;20035;-76
2021/01/30 07:25:39;;;;;;;10.18;2.65;;;;;;;1.51;79.31;92306.81;5094021;28;20039;-76
2021/01/30 07:28:19;;;;;;;2.75;1.50;;;;;;;1.44;79.31;92311.69;5116894;27;20031;-76
2021/01/30 07:30:54;;;;;;;4.07;1.83;;;;;;;1.30;79.64;92322.19;5113915;27;20134;-76
2021/01/30 07:33:28;;;;;;;3.10;1.48;;;;;;;1.25;80.15;92320.44;5119726;27;20031;-77
2021/01/30 07:36:12;;;;;;;6.38;2.05;;;;;;;1.18;80.53;92322.66;5116779;27;20032;-76
2021/01/30 07:39:19;;;;;;;3.25;1.67;;;;;;;1.11;81.27;92325.69;5110434;28;20448;-76
2021/01/30 07:42:14;;;;;;;6.47;1.42;;;;;;;1.11;81.70;92324.91;5093421;28;20092;-76
2021/01/30 07:45:13;;;;;;;2.35;1.15;;;;;;;1.17;81.78;92324.53;5110156;28;20055;-76
2021/01/30 07:48:00;;;;;;;1.23;0.60;;;;;;;1.26;81.72;92329.88;5128798;27;20501;-76
2021/01/30 07:50:30;;;;;;;2.38;1.10;;;;;;;1.41;81.48;92339.31;5098846;28;20024;-76
2021/01/30 07:53:05;;;;;;;4.30;1.73;;;;;;;1.54;81.12;92350.84;5125079;27;20471;-77
2021/01/30 07:55:30;;;;;;;2.95;1.38;;;;;;;1.50;81.08;92334.13;5132276;27;20171;-77
2021/01/30 07:58:17;;;;;;;3.55;1.73;;;;;;;1.51;81.00;92346.22;5124520;27;20113;-76
2021/01/30 08:01:12;;;;;;;4.35;1.20;;;;;;;1.58;80.87;92344.72;5120665;27;20443;-77
2021/01/30 08:03:43;;;;;;;2.80;0.82;;;;;;;1.50;80.78;92355.91;5113685;27;20091;-77
2021/01/30 08:06:09;;;;;;;2.53;0.98;;;;;;;1.58;80.72;92352.59;5101670;28;20328;-77
2021/01/30 08:08:59;;;;;;;1.35;0.60;;;;;;;1.67;80.63;92357.16;5096913;27;20035;-77
2021/01/30 08:11:32;;;;;;;2.15;0.95;;;;;;;1.73;80.05;92367.28;5131890;27;20095;-76
2021/01/30 08:14:00;;;;;;;0.60;0.55;;;;;;;1.78;80.01;92361.91;5131418;27;20200;-76
2021/01/30 08:16:39;;;;;;;1.45;0.60;;;;;;;1.84;80.02;92367.84;5103887;28;20088;-77
2021/01/30 08:19:14;;;;;;;1.65;0.30;;;;;;;1.84;79.49;92369.69;5118961;27;20023;-76
2021/01/30 08:21:53;;;;;;;1.40;0.70;;;;;;;1.92;79.53;92387.41;5129225;27;20030;-76
2021/01/30 08:24:54;;;;;;;1.23;0.70;;;;;;;1.95;79.83;92386.78;5092685;28;20031;-78
2021/01/30 08:27:34;;;;;;;1.52;0.80;;;;;;;2.02;79.67;92408.22;5092104;28;20436;-77
2021/01/30 08:30:05;;;;;;;1.45;0.73;;;;;;;2.02;78.79;92396.94;5098263;28;20100;-77
2021/01/30 08:32:34;;;;;;;1.70;0.93;;;;;;;2.06;79.23;92408.41;5124216;27;20528;-77
2021/01/30 08:35:19;;;;;;;2.80;0.90;;;;;;;2.16;78.83;92400.31;5112154;27;20084;-77
2021/01/30 08:38:07;;;;;;;3.08;0.73;;;;;;;2.26;78.66;92413.22;5109484;28;20035;-77
2021/01/30 08:41:11;;;;;;;0.85;0.47;;;;;;;2.33;77.26;92429.34;5092925;27;20390;-77
2021/01/30 08:43:39;;;;;;;1.45;0.77;;;;;;;2.40;78.01;92428.94;5078772;27;20413;-77
2021/01/30 08:46:25;;;;;;;0.88;0.60;;;;;;;2.41;77.27;92430.50;5102848;28;20028;-77
2021/01/30 08:49:21;;;;;;;1.50;0.75;;;;;;;2.47;76.76;92434.56;5106825;27;20087;-77
2021/01/30 08:52:08;;;;;;;4.32;1.10;;;;;;;2.52;77.14;92436.31;5107941;27;20046;-77
2021/01/30 08:54:38;;;;;;;1.55;0.90;;;;;;;2.61;76.62;92426.66;5097052;27;20031;-77
2021/01/30 08:57:24;;;;;;;3.05;1.33;;;;;;;2.60;76.82;92419.81;5111994;27;20126;-77
2021/01/30 08:59:52;;;;;;;2.65;1.27;;;;;;;2.73;76.68;92421.63;5116642;27;20027;-77
2021/01/30 09:02:27;;;;;;;2.65;1.30;;;;;;;2.89;76.65;92437.03;5106577;27;20019;-77
2021/01/30 09:05:33;;;;;;;1.77;1.08;;;;;;;2.92;76.18;92439.84;5091951;28;20035;-77
2021/01/30 09:08:19;;;;;;;2.88;1.60;;;;;;;2.92;76.41;92446.97;5093838;27;20055;-76
2021/01/30 09:10:45;;;;;;;2.92;1.70;;;;;;;2.95;76.67;92434.00;5112021;28;20418;-76
2021/01/30 09:13:11;;;;;;;3.25;1.73;;;;;;;3.04;76.50;92435.91;5095314;28;20051;-77
2021/01/30 09:15:42;;;;;;;3.75;1.83;;;;;;;3.07;76.24;92443.97;5091852;28;20027;-76
2021/01/30 09:18:26;;;;;;;3.35;2.22;;;;;;;3.12;76.07;92440.47;5092078;28;20102;-77
2021/01/30 09:21:00;;;;;;;3.20;1.90;;;;;;;3.22;75.77;92448.09;5091676;28;20042;-77
2021/01/30 09:23:59;;;;;;;3.45;2.05;;;;;;;3.26;75.29;92451.69;5091618;28;20027;-76
2021/01/30 09:26:39;;;;;;;5.03;2.35;;;;;;;3.38;75.04;92457.19;5091567;28;20030;-76
2021/01/30 09:29:06;;;;;;;4.32;2.63;;;;;;;3.30;75.01;92475.56;5104401;28;20023;-77
2021/01/30 09:31:32;;;;;;;3.30;2.17;;;;;;;3.33;75.41;92465.19;5112027;28;20096;-77
2021/01/30 09:34:23;;;;;;;4.57;2.88;;;;;;;3.49;75.78;92462.19;5130301;27;20102;-76
2021/01/30 09:36:51;;;;;;;4.88;2.40;;;;;;;3.52;74.62;92466.84;5129561;27;20525;-76
2021/01/30 09:39:31;;;;;;;6.97;4.45;;;;;;;3.58;74.46;92463.00;5129202;27;20051;-76
2021/01/30 09:42:13;;;;;;;5.50;2.60;;;;;;;3.62;74.00;92461.31;5111848;28;20030;-76
2021/01/30 09:44:38;;;;;;;;;;;;;;;3.74;74.02;92443.06;5119769;28;20016;-76
2021/01/30 09:47:14;;;;;;;4.95;2.75;;;;;;;3.78;73.65;92446.66;5108500;28;20275;-76
2021/01/30 09:49:43;;;;;;;4.72;2.88;;;;;;;3.78;73.21;92436.09;5109947;28;20019;-76
2021/01/30 09:52:09;;;;;;;5.57;2.72;;;;;;;3.81;73.04;92421.56;5108482;28;20108;-76
2021/01/30 09:54:36;;;;;;;4.20;2.50;;;;;;;3.91;72.13;92438.94;5119773;28;20073;-75
2021/01/30 09:57:23;;;;;;;3.72;2.22;;;;;;;4.05;71.38;92444.09;5108272;28;20513;-76
2021/01/30 10:00:01;;;;;;;6.10;2.75;;;;;;;4.29;70.88;92441.03;5098719;28;20166;-76
2021/01/30 10:02:29;;;;;;;3.42;2.22;;;;;;;4.44;70.76;92443.25;5124786;27;20147;-76
2021/01/30 10:05:05;;;;;;;5.65;2.08;;;;;;;4.54;69.29;92428.97;5091377;28;20019;-76
2021/01/30 10:07:30;;;;;;;3.50;2.03;;;;;;;4.62;68.67;92439.53;5092972;28;20026;-76
2021/01/30 10:09:56;;;;;;;5.55;3.00;;;;;;;4.66;68.83;92449.47;5095219;28;20019;-76
2021/01/30 10:12:24;;;;;;;4.53;2.35;;;;;;;4.69;68.15;92427.75;5113530;28;20031;-76
2021/01/30 10:14:58;;;;;;;4.50;2.28;;;;;;;4.71;68.54;92439.53;5071297;28;20040;-77
2021/01/30 10:17:29;;;;;;;6.15;2.55;;;;;;;4.70;68.40;92434.56;5083133;28;20020;-77
2021/01/30 10:20:08;;;;;;;8.90;3.35;;;;;;;4.68;69.06;92434.09;5091331;28;20112;-77
2021/01/30 10:22:40;;;;;;;7.18;3.13;;;;;;;4.75;68.58;92437.06;5062953;28;20384;-77
2021/01/30 10:25:17;;;;;;;6.50;3.60;;;;;;;4.76;68.66;92444.66;5092728;28;20023;-77
2021/01/30 10:27:43;;;;;;;9.93;3.35;;;;;;;4.71;68.99;92441.41;5080375;28;20028;-77
2021/01/30 10:30:12;;;;;;;6.28;3.15;;;;;;;4.62;69.04;92447.44;5071248;28;20377;-77
2021/01/30 10:32:54;;;;;;;6.20;2.88;;;;;;;4.59;69.42;92447.28;5072356;28;20024;-77
2021/01/30 10:35:51;;;;;;;4.55;2.22;;;;;;;4.53;69.88;92444.03;5072612;28;20103;-77
2021/01/30 10:38:26;;;;;;;7.05;3.55;;;;;;;4.55;70.27;92444.47;5076706;28;20043;-77
2021/01/30 10:40:59;;;;;;;8.85;4.07;;;;;;;4.49;70.59;92448.34;5072136;28;20078;-76
2021/01/30 10:43:36;;;;;;;10.10;4.00;;;;;;;4.56;70.81;92474.28;5087798;28;20078;-76
2021/01/30 10:46:28;;;;;;;8.57;4.50;;;;;;;4.57;71.12;92454.75;5078051;28;20042;-76
2021/01/30 10:49:01;;;;;;;11.63;3.93;;;;;;;4.67;70.99;92451.03;5073801;28;20506;-76
2021/01/30 10:51:28;;;;;;;6.70;3.55;;;;;;;4.80;70.38;92458.78;5085411;28;20111;-76
2021/01/30 10:54:15;;;;;;;10.38;4.47;;;;;;;4.87;69.80;92468.88;5092276;28;20030;-76
2021/01/30 10:56:40;;;;;;;8.55;4.00;;;;;;;4.93;69.82;92475.56;5066863;28;20029;-76
2021/01/30 10:59:22;;;;;;;5.43;2.92;;;;;;;4.95;69.16;92470.75;5080860;28;20404;-76
2021/01/30 11:01:47;;;;;;;6.85;3.15;;;;;;;5.03;68.74;92469.97;5067651;28;20028;-76
2021/01/30 11:04:24;;;;;;;5.15;3.40;;;;;;;5.19;69.32;92482.66;5071377;28;20028;-76
2021/01/30 11:07:00;;;;;;;9.70;4.25;;;;;;;5.38;69.19;92480.47;5070818;28;20016;-76
2021/01/30 11:09:28;;;;;;;12.40;6.22;;;;;;;5.39;69.12;92492.63;5087493;28;20110;-76
2021/01/30 11:12:23;;;;;;;10.57;5.82;;;;;;;5.27;68.85;92489.03;5089391;28;20561;-76
2021/01/30 11:14:49;;;;;;;16.30;7.30;;;;;;;5.20;68.99;92471.81;5097990;28;20048;-76
2021/01/30 11:17:24;;;;;;;10.13;4.05;;;;;;;5.06;69.29;92473.84;5115273;27;20043;-76
2021/01/30 11:19:49;;;;;;;9.68;3.80;;;;;;;5.07;69.70;92477.25;5124835;27;20038;-76
2021/01/30 11:22:17;;;;;;;8.05;4.20;;;;;;;5.08;69.11;92474.31;5115037;27;20417;-76
2021/01/30 11:25:06;;;;;;;13.38;3.95;;;;;;;5.18;69.31;92491.69;5117136;27;20409;-75
2021/01/30 11:27:38;;;;;;;7.95;3.83;;;;;;;5.14;69.00;92483.63;5093941;28;20020;-75
2021/01/30 11:30:15;;;;;;;10.73;5.07;;;;;;;5.15;69.26;92505.50;5112632;28;20051;-75
2021/01/30 11:32:54;;;;;;;7.82;4.22;;;;;;;5.20;69.08;92495.56;5093468;28;20035;-75
2021/01/30 11:35:29;;;;;;;9.75;5.10;;;;;;;5.29;68.46;92497.44;5094150;28;20072;-75
2021/01/30 11:37:58;;;;;;;8.85;3.70;;;;;;;5.33;67.54;92522.94;5093826;28;20030;-75
2021/01/30 11:40:24;;;;;;;13.07;4.55;;;;;;;5.31;67.95;92506.63;5112092;28;20442;-75
2021/01/30 11:42:49;;;;;;;10.73;5.18;;;;;;;5.48;67.73;92505.03;5132001;27;20110;-75
2021/01/30 11:45:15;;;;;;;10.15;4.93;;;;;;;5.61;67.48;92496.13;5113481;27;20027;-75
2021/01/30 11:47:40;;;;;;;10.98;4.72;;;;;;;5.66;67.35;92498.63;5131284;27;20019;-75
2021/01/30 11:50:07;;;;;;;9.98;4.30;;;;;;;5.68;67.03;92493.78;5112911;27;20075;-75
2021/01/30 11:52:33;;;;;;;8.55;4.28;;;;;;;5.66;66.52;92505.75;5129828;27;20106;-75
2021/01/30 11:54:58;;;;;;;10.50;5.05;;;;;;;5.69;67.02;92505.13;5130278;27;20475;-75
2021/01/30 11:57:24;;;;;;;10.23;3.58;;;;;;;5.62;66.13;92492.41;5130666;27;20413;-75
2021/01/30 11:59:49;;;;;;;9.82;5.28;;;;;;;5.71;67.09;92508.25;5101765;28;20028;-75
2021/01/30 12:02:19;;;;;;;11.63;3.83;;;;;;;5.71;66.79;92505.59;5110802;28;20016;-75